High Falls, New York
Current Conditions -  °F | °C
As of 5:53 PM on Saturday 20 Dec 2014 (Local Time) from KPOU Reporting Station
Overcast Overcast  
Wind Chill: 30°   Ceiling: 3300
Heat Index: 30°   Visibility: 10mi
Dew Point: 19°   Wind: 3mph
Humidity: 64%   Direction: 340°NNW
Pressure: 30.29"   Gusts: NA
Location:  41.82°N, 74.11°W
Report Text: KPOU 202253Z 34003KT 10SM SCT025 OVC033 M01/M07 A3029 RMK AO2 SLP255 T10111072
Loading
Personal Weather Stations






























Interactive Weather Map New forecast layout! Learn more

10-Day Weather Forecast

Advertisements
Track Severe Weather on mobile